createdAt,value
2019-02-22T00:02:34.440Z,61.66
2019-02-22T00:05:01.587Z,62.04
2019-02-22T00:07:28.850Z,61.65
2019-02-22T00:09:56.112Z,60.84
2019-02-22T00:12:24.352Z,60.63
2019-02-22T00:14:51.482Z,61.09
2019-02-22T00:17:18.682Z,60.68
2019-02-22T00:19:45.824Z,60.86
2019-02-22T00:22:13.036Z,62.26
2019-02-22T00:24:41.398Z,63.80
2019-02-22T00:27:08.536Z,64.92
2019-02-22T00:29:35.734Z,65.56
2019-02-22T00:32:03.031Z,65.91
2019-02-22T00:34:30.173Z,65.80
2019-02-22T00:36:57.360Z,65.89
2019-02-22T00:39:24.476Z,65.63
2019-02-22T00:41:51.625Z,65.54
2019-02-22T00:44:18.770Z,65.29
2019-02-22T00:46:45.929Z,64.50
2019-02-22T00:49:13.140Z,63.51
2019-02-22T00:51:40.259Z,61.99
2019-02-22T00:54:07.485Z,59.97
2019-02-22T00:56:34.782Z,59.51
2019-02-22T00:59:01.917Z,60.12
2019-02-22T01:01:29.134Z,60.14
2019-02-22T01:03:56.273Z,59.35
2019-02-22T01:06:23.526Z,58.43
2019-02-22T01:08:50.718Z,57.97
2019-02-22T01:11:18.024Z,57.23
2019-02-22T01:13:45.172Z,57.45
2019-02-22T01:16:12.334Z,57.49
2019-02-22T01:18:39.498Z,58.76
2019-02-22T01:21:06.667Z,58.71
2019-02-22T01:23:33.864Z,58.50
2019-02-22T01:26:01.051Z,58.11
2019-02-22T01:28:28.193Z,57.99
2019-02-22T01:30:55.354Z,57.70
2019-02-22T01:33:22.539Z,57.67
2019-02-22T01:35:49.683Z,58.26
2019-02-22T01:38:16.908Z,57.73
2019-02-22T01:40:44.309Z,58.46
2019-02-22T01:43:11.631Z,59.20
2019-02-22T01:45:38.797Z,59.80
2019-02-22T01:48:05.928Z,60.13
2019-02-22T01:50:33.069Z,60.11
2019-02-22T01:53:00.232Z,59.26
2019-02-22T01:55:27.415Z,59.33
2019-02-22T01:57:54.684Z,58.34
2019-02-22T02:00:21.979Z,58.55
2019-02-22T02:02:49.150Z,59.10
2019-02-22T02:05:16.313Z,59.19
2019-02-22T02:07:43.634Z,59.04
2019-02-22T02:10:10.833Z,59.09
2019-02-22T02:12:38.029Z,59.64
2019-02-22T02:15:06.191Z,59.51
2019-02-22T02:17:33.607Z,58.69
2019-02-22T02:20:01.161Z,57.51
2019-02-22T02:22:28.815Z,56.70
2019-02-22T02:24:55.950Z,56.45
2019-02-22T02:27:23.081Z,55.82
2019-02-22T02:29:50.248Z,55.49
2019-02-22T02:32:17.429Z,55.23
2019-02-22T02:34:44.535Z,54.97
2019-02-22T02:37:11.695Z,55.05
2019-02-22T02:39:38.815Z,54.85
2019-02-22T02:42:05.962Z,54.95
2019-02-22T02:44:33.108Z,54.95
2019-02-22T02:47:00.264Z,54.78
2019-02-22T02:49:27.418Z,54.78
2019-02-22T02:51:54.566Z,54.76
2019-02-22T02:54:21.715Z,54.61
2019-02-22T02:56:48.872Z,54.62
2019-02-22T02:59:16.011Z,54.56
2019-02-22T03:01:43.184Z,54.96
2019-02-22T03:04:10.319Z,54.74
2019-02-22T03:06:45.618Z,54.38
2019-02-22T03:09:12.775Z,54.04
2019-02-22T03:11:40.031Z,54.50
2019-02-22T03:14:07.192Z,55.33
2019-02-22T03:16:34.383Z,56.51
2019-02-22T03:19:01.550Z,57.72
2019-02-22T03:21:28.751Z,57.16
2019-02-22T03:23:55.891Z,57.55
2019-02-22T03:26:23.047Z,58.68
2019-02-22T03:28:50.290Z,60.51
2019-02-22T03:31:17.418Z,61.82
2019-02-22T03:33:44.645Z,61.86
2019-02-22T03:36:11.801Z,60.50
2019-02-22T03:38:38.922Z,59.49
2019-02-22T03:41:06.252Z,59.84
2019-02-22T03:43:33.421Z,63.15
2019-02-22T03:46:00.619Z,65.00
2019-02-22T03:48:27.773Z,65.35
2019-02-22T03:50:54.956Z,65.45
2019-02-22T03:53:28.887Z,65.56
2019-02-22T03:55:56.089Z,65.70
2019-02-22T03:58:23.248Z,66.05
2019-02-22T04:00:50.366Z,65.62
2019-02-22T04:03:17.517Z,65.11
2019-02-22T04:05:44.701Z,65.41
2019-02-22T04:08:11.832Z,65.17
2019-02-22T04:10:39.176Z,65.41
2019-02-22T04:13:06.319Z,65.61
2019-02-22T04:15:33.586Z,65.86
2019-02-22T04:18:00.748Z,66.30
2019-02-22T04:20:27.910Z,66.51
2019-02-22T04:22:56.090Z,66.79
2019-02-22T04:25:23.298Z,67.19
2019-02-22T04:27:50.439Z,67.43
2019-02-22T04:30:17.592Z,67.35
2019-02-22T04:32:45.754Z,67.46
2019-02-22T04:35:12.934Z,67.91
2019-02-22T04:37:40.180Z,68.16
2019-02-22T04:40:07.407Z,68.49
2019-02-22T04:42:34.679Z,68.51
2019-02-22T04:45:01.827Z,67.96
2019-02-22T04:47:29.044Z,67.96
2019-02-22T04:49:56.205Z,68.14
2019-02-22T04:52:23.358Z,68.33
2019-02-22T04:54:50.515Z,68.58
2019-02-22T04:57:17.668Z,68.50
2019-02-22T04:59:44.829Z,68.48
2019-02-22T05:02:11.994Z,68.66
2019-02-22T05:04:39.400Z,68.36
2019-02-22T05:07:07.662Z,68.31
2019-02-22T05:09:34.916Z,67.84
2019-02-22T05:12:10.425Z,67.96
2019-02-22T05:14:31.119Z,67.60
2019-02-22T05:17:00.107Z,67.63
2019-02-22T05:19:27.283Z,68.04
2019-02-22T05:21:55.914Z,68.46
2019-02-22T05:24:25.473Z,68.78
2019-02-22T05:26:53.029Z,68.32
2019-02-22T05:29:20.185Z,68.36
2019-02-22T05:31:47.464Z,68.29
2019-02-22T05:34:14.624Z,68.32
2019-02-22T05:36:44.157Z,68.90
2019-02-22T05:39:19.127Z,68.96
2019-02-22T05:41:39.967Z,68.55
2019-02-22T05:44:07.157Z,68.58
2019-02-22T05:46:34.307Z,68.23
2019-02-22T05:49:01.460Z,67.50
2019-02-22T05:51:29.877Z,67.27
2019-02-22T05:53:57.003Z,66.17
2019-02-22T05:56:24.198Z,65.88
2019-02-22T05:58:51.396Z,66.07
2019-02-22T06:01:18.547Z,67.31
2019-02-22T06:03:45.795Z,67.37
2019-02-22T06:06:12.955Z,66.50
2019-02-22T06:08:41.968Z,66.65
2019-02-22T06:11:09.097Z,66.67
2019-02-22T06:13:39.745Z,67.18
2019-02-22T06:16:06.887Z,67.70
2019-02-22T06:18:34.034Z,68.04
2019-02-22T06:21:01.187Z,68.21
2019-02-22T06:23:28.347Z,68.16
2019-02-22T06:25:55.490Z,67.58
2019-02-22T06:28:22.644Z,67.09
2019-02-22T06:30:49.788Z,66.02
2019-02-22T06:33:16.942Z,65.57
2019-02-22T06:35:44.170Z,65.25
2019-02-22T06:38:11.324Z,65.63
2019-02-22T06:40:38.444Z,66.30
2019-02-22T06:43:05.581Z,66.33
2019-02-22T06:45:32.706Z,66.44
2019-02-22T06:48:01.225Z,66.54
2019-02-22T06:50:33.630Z,66.69
2019-02-22T06:52:57.426Z,66.27
2019-02-22T06:55:24.568Z,65.86
2019-02-22T06:57:52.253Z,64.51
2019-02-22T07:00:20.510Z,63.33
2019-02-22T07:02:47.635Z,62.35
2019-02-22T07:05:14.813Z,61.97
2019-02-22T07:07:41.954Z,61.97
2019-02-22T07:10:09.251Z,61.48
2019-02-22T07:12:41.002Z,61.23
2019-02-22T07:15:08.170Z,62.13
2019-02-22T07:17:35.291Z,62.43
2019-02-22T07:20:02.584Z,64.21
2019-02-22T07:22:30.212Z,65.29
2019-02-22T07:24:57.336Z,64.46
2019-02-22T07:27:24.555Z,63.53
2019-02-22T07:29:51.674Z,61.76
2019-02-22T07:32:18.837Z,61.65
2019-02-22T07:34:53.371Z,60.99
2019-02-22T07:37:24.386Z,59.12
2019-02-22T07:39:52.524Z,57.83
2019-02-22T07:42:19.672Z,59.05
2019-02-22T07:44:47.073Z,59.12
2019-02-22T07:47:14.228Z,58.72
2019-02-22T07:49:41.349Z,56.55
2019-02-22T07:52:08.469Z,54.86
2019-02-22T07:54:35.650Z,53.57
2019-02-22T07:57:02.786Z,52.42
2019-02-22T07:59:29.931Z,51.69
2019-02-22T08:01:57.105Z,51.34
2019-02-22T08:04:24.231Z,50.48
2019-02-22T08:06:51.364Z,51.27
2019-02-22T08:09:18.552Z,55.37
2019-02-22T08:11:47.507Z,55.11
2019-02-22T08:14:14.818Z,55.57
2019-02-22T08:16:43.205Z,57.02
2019-02-22T08:19:11.338Z,57.60
2019-02-22T08:21:38.582Z,56.09
2019-02-22T08:24:05.801Z,54.35
2019-02-22T08:26:33.007Z,52.61
2019-02-22T08:29:00.132Z,51.62
2019-02-22T08:31:27.333Z,51.54
2019-02-22T08:33:57.015Z,53.06
2019-02-22T08:36:23.510Z,55.97
2019-02-22T08:38:50.819Z,57.63
2019-02-22T08:41:18.105Z,58.47
2019-02-22T08:43:45.236Z,56.51
2019-02-22T08:46:12.489Z,57.18
2019-02-22T08:48:39.740Z,57.53
2019-02-22T08:51:06.886Z,58.01
2019-02-22T08:53:34.189Z,57.51
2019-02-22T08:56:01.314Z,55.80
2019-02-22T08:58:28.540Z,54.97
2019-02-22T09:00:55.719Z,52.86
2019-02-22T09:03:24.119Z,51.50
2019-02-22T09:05:51.258Z,52.14
2019-02-22T09:08:18.444Z,53.43
2019-02-22T09:10:45.684Z,53.97
2019-02-22T09:13:12.933Z,55.46
2019-02-22T09:15:40.103Z,55.38
2019-02-22T09:18:08.560Z,55.62
2019-02-22T09:20:35.699Z,55.07
2019-02-22T09:23:03.363Z,52.68
2019-02-22T09:25:30.585Z,51.27
2019-02-22T09:27:57.870Z,52.43
2019-02-22T09:30:26.301Z,53.31
2019-02-22T09:32:53.700Z,51.73
2019-02-22T09:35:23.056Z,51.06
2019-02-22T09:37:50.319Z,50.02
2019-02-22T09:40:17.502Z,51.19
2019-02-22T09:42:44.741Z,50.74
2019-02-22T09:45:11.923Z,50.91
2019-02-22T09:47:39.029Z,51.22
2019-02-22T09:50:07.783Z,50.08
2019-02-22T09:52:34.931Z,50.45
2019-02-22T09:55:02.082Z,50.92
2019-02-22T09:57:29.436Z,51.15
2019-02-22T09:59:57.404Z,49.02
2019-02-22T10:02:24.503Z,48.48
2019-02-22T10:04:55.005Z,48.14
2019-02-22T10:07:20.747Z,48.31
2019-02-22T10:09:47.931Z,48.13
2019-02-22T10:12:18.585Z,46.96
2019-02-22T10:14:45.743Z,48.20
2019-02-22T10:17:14.704Z,49.07
2019-02-22T10:19:41.851Z,47.62
2019-02-22T10:22:11.334Z,47.39
2019-02-22T10:24:38.476Z,45.17
2019-02-22T10:27:07.410Z,39.74
2019-02-22T10:29:34.555Z,40.47
2019-02-22T10:32:01.697Z,41.07
2019-02-22T10:34:29.927Z,43.30
2019-02-22T10:36:57.063Z,43.94
2019-02-22T10:39:24.251Z,44.41
2019-02-22T10:41:53.707Z,42.62
2019-02-22T10:44:20.866Z,43.11
2019-02-22T10:46:47.988Z,43.67
2019-02-22T10:49:15.125Z,42.43
2019-02-22T10:51:42.302Z,43.30
2019-02-22T10:54:10.526Z,41.82
2019-02-22T10:56:39.304Z,42.97
2019-02-22T10:59:06.714Z,41.34
2019-02-22T11:01:33.930Z,39.73
2019-02-22T11:04:02.183Z,39.40
2019-02-22T11:06:29.392Z,41.72
2019-02-22T11:08:57.731Z,40.87
2019-02-22T11:11:24.918Z,41.99
2019-02-22T11:13:52.103Z,41.83
2019-02-22T11:16:19.218Z,41.09
2019-02-22T11:18:47.584Z,41.27
2019-02-22T11:21:14.910Z,43.00
2019-02-22T11:23:42.047Z,41.65
2019-02-22T11:26:09.200Z,41.62
2019-02-22T11:28:36.364Z,42.50
2019-02-22T11:31:03.576Z,44.24
2019-02-22T11:33:30.834Z,44.08
2019-02-22T11:35:58.614Z,44.68
2019-02-22T11:38:25.780Z,44.33
2019-02-22T11:40:52.948Z,45.23
2019-02-22T11:43:20.270Z,46.45
2019-02-22T11:45:49.830Z,46.74
2019-02-22T11:48:16.519Z,46.46
2019-02-22T11:50:44.900Z,46.65
2019-02-22T11:53:13.263Z,46.79
2019-02-22T11:55:40.428Z,46.31
2019-02-22T11:58:15.831Z,46.52
2019-02-22T12:00:43.038Z,47.77
2019-02-22T12:03:23.664Z,48.59
2019-02-22T12:05:39.333Z,49.09
2019-02-22T12:08:06.581Z,49.01
2019-02-22T12:10:35.043Z,48.96
2019-02-22T12:13:02.195Z,48.72
2019-02-22T12:15:31.428Z,49.72
2019-02-22T12:17:58.885Z,49.33
2019-02-22T12:20:27.708Z,49.69
2019-02-22T12:22:54.840Z,49.95
2019-02-22T12:25:34.382Z,49.71
2019-02-22T12:28:01.974Z,49.86
2019-02-22T12:30:29.191Z,50.48
2019-02-22T12:32:56.367Z,49.57
2019-02-22T12:35:23.590Z,49.94
2019-02-22T12:37:51.732Z,50.06
2019-02-22T12:40:18.924Z,49.52
2019-02-22T12:42:46.073Z,49.26
2019-02-22T12:45:13.183Z,48.50
2019-02-22T12:47:40.348Z,47.61
2019-02-22T12:50:07.866Z,47.43
2019-02-22T12:52:36.191Z,47.51
2019-02-22T12:55:04.620Z,47.27
2019-02-22T12:57:32.846Z,47.17
2019-02-22T12:59:59.963Z,47.39
2019-02-22T13:02:27.276Z,47.60
2019-02-22T13:04:54.494Z,48.13
2019-02-22T13:07:21.617Z,47.84
2019-02-22T13:09:48.773Z,48.95
2019-02-22T13:12:17.441Z,48.52
2019-02-22T13:14:44.769Z,49.36
2019-02-22T13:17:13.162Z,48.74
2019-02-22T13:19:41.609Z,48.62
2019-02-22T13:22:10.576Z,48.71
2019-02-22T13:24:37.721Z,48.01
2019-02-22T13:27:06.182Z,47.53
2019-02-22T13:29:33.303Z,46.39
2019-02-22T13:32:01.587Z,47.58
2019-02-22T13:34:28.706Z,48.69
2019-02-22T13:36:55.852Z,49.51
2019-02-22T13:39:25.693Z,48.70
2019-02-22T13:41:52.818Z,48.29
2019-02-22T13:44:24.381Z,47.88
2019-02-22T13:46:51.524Z,46.32
2019-02-22T13:49:24.670Z,47.25
2019-02-22T13:51:51.986Z,46.61
2019-02-22T13:54:19.132Z,46.41
2019-02-22T13:56:46.252Z,47.56
2019-02-22T13:59:13.461Z,48.03
2019-02-22T14:01:40.750Z,47.94
2019-02-22T14:04:07.927Z,49.22
2019-02-22T14:06:36.217Z,48.41
2019-02-22T14:09:04.360Z,49.34
2019-02-22T14:11:33.388Z,49.63
2019-02-22T14:14:00.693Z,48.70
2019-02-22T14:16:27.939Z,49.38
2019-02-22T14:18:55.094Z,48.69
2019-02-22T14:21:22.235Z,47.79
2019-02-22T14:23:49.407Z,47.39
2019-02-22T14:26:16.634Z,48.61
2019-02-22T14:28:43.789Z,48.83
2019-02-22T14:31:13.196Z,49.36
2019-02-22T14:33:40.355Z,49.72
2019-02-22T14:36:07.631Z,49.11
2019-02-22T14:38:34.813Z,49.14
2019-02-22T14:41:01.939Z,48.90
2019-02-22T14:43:29.229Z,49.17
2019-02-22T14:45:56.368Z,49.27
2019-02-22T14:48:23.504Z,48.16
2019-02-22T14:50:50.658Z,48.01
2019-02-22T14:53:19.807Z,47.46
2019-02-22T14:55:47.027Z,47.19
2019-02-22T14:58:14.165Z,47.10
2019-02-22T15:00:53.065Z,47.05
2019-02-22T15:03:20.210Z,46.60
2019-02-22T15:05:47.340Z,46.84
2019-02-22T15:08:14.495Z,46.41
2019-02-22T15:10:41.698Z,46.60
2019-02-22T15:13:12.628Z,46.56
2019-02-22T15:16:00.552Z,48.60
2019-02-22T15:18:26.428Z,48.28
2019-02-22T15:20:53.566Z,49.14
2019-02-22T15:23:21.905Z,49.05
2019-02-22T15:25:49.098Z,48.04
2019-02-22T15:28:16.247Z,48.11
2019-02-22T15:30:45.267Z,48.39
2019-02-22T15:33:13.518Z,49.37
2019-02-22T15:35:41.790Z,49.85
2019-02-22T15:38:11.117Z,50.09
2019-02-22T15:40:39.372Z,50.50
2019-02-22T15:43:06.799Z,50.45
2019-02-22T15:45:33.989Z,51.40
2019-02-22T15:48:02.540Z,51.87
2019-02-22T15:50:29.819Z,52.22
2019-02-22T15:52:59.231Z,52.41
2019-02-22T15:55:26.615Z,51.55
2019-02-22T15:57:53.929Z,46.47
2019-02-22T16:00:23.438Z,44.16
2019-02-22T16:02:50.797Z,41.87
2019-02-22T16:05:29.189Z,41.50
2019-02-22T16:07:56.342Z,41.80
2019-02-22T16:10:23.489Z,41.59
2019-02-22T16:12:50.959Z,40.28
2019-02-22T16:15:18.158Z,41.97
2019-02-22T16:17:45.401Z,42.00
2019-02-22T16:20:15.882Z,44.03
2019-02-22T16:22:43.592Z,46.77
2019-02-22T16:25:19.674Z,45.01
2019-02-22T16:27:47.062Z,45.26
2019-02-22T16:33:40.670Z,46.07
2019-02-22T16:36:07.822Z,48.21
2019-02-22T16:38:34.952Z,50.88
2019-02-22T16:41:04.339Z,52.01
2019-02-22T16:43:34.437Z,52.61
2019-02-22T16:46:01.578Z,53.14
2019-02-22T16:48:30.230Z,53.73
2019-02-22T16:50:59.994Z,54.26
2019-02-22T16:53:34.085Z,54.36
2019-02-22T16:56:01.243Z,54.97
2019-02-22T16:58:28.679Z,55.14
2019-02-22T17:00:55.822Z,55.38
2019-02-22T17:03:22.986Z,56.28
2019-02-22T17:05:52.131Z,57.00
2019-02-22T17:08:19.440Z,57.13
2019-02-22T17:10:46.935Z,57.38
2019-02-22T17:13:14.438Z,57.40
2019-02-22T17:15:48.734Z,57.75
2019-02-22T17:18:15.945Z,58.03
2019-02-22T17:20:43.128Z,58.36
2019-02-22T17:23:10.391Z,58.06
2019-02-22T17:25:37.602Z,58.38
2019-02-22T17:28:06.449Z,59.03
2019-02-22T17:30:33.638Z,59.42
2019-02-22T17:33:00.767Z,59.35
2019-02-22T17:35:29.300Z,59.09
2019-02-22T17:37:56.477Z,59.76
2019-02-22T17:40:26.383Z,60.12
2019-02-22T17:42:53.531Z,60.89
2019-02-22T17:45:20.736Z,61.25
2019-02-22T17:47:47.880Z,61.11
2019-02-22T17:50:15.136Z,61.74
2019-02-22T17:52:42.450Z,61.85
2019-02-22T17:55:18.414Z,61.65
2019-02-22T17:58:04.009Z,60.64
2019-02-22T18:00:32.370Z,60.47
2019-02-22T18:02:59.572Z,60.62
2019-02-22T18:05:27.137Z,60.62
2019-02-22T18:07:54.295Z,60.52
2019-02-22T18:10:30.100Z,60.68
2019-02-22T18:12:57.320Z,60.17
2019-02-22T18:15:24.458Z,59.81
2019-02-22T18:17:51.642Z,60.41
2019-02-22T18:20:18.901Z,61.03
2019-02-22T18:22:46.005Z,60.79
2019-02-22T18:25:18.587Z,60.58
2019-02-22T18:27:45.780Z,60.87
2019-02-22T18:30:13.335Z,61.11
2019-02-22T18:32:40.520Z,61.05
2019-02-22T18:35:10.591Z,61.07
2019-02-22T18:37:37.878Z,61.73
2019-02-22T18:40:08.846Z,61.92
2019-02-22T18:42:36.018Z,61.54
2019-02-22T18:45:03.403Z,61.23
2019-02-22T18:47:31.567Z,61.49
2019-02-22T18:49:58.760Z,61.78
2019-02-22T18:52:25.930Z,62.08
2019-02-22T18:54:53.116Z,63.03
2019-02-22T18:57:20.292Z,63.50
2019-02-22T18:59:47.500Z,63.66
2019-02-22T19:02:14.694Z,63.83
2019-02-22T19:04:43.003Z,63.89
2019-02-22T19:07:11.284Z,63.07
2019-02-22T19:09:38.477Z,63.92
2019-02-22T19:12:18.241Z,64.75
2019-02-22T19:14:47.731Z,65.17
2019-02-22T19:17:14.903Z,65.97
2019-02-22T19:19:42.067Z,67.13
2019-02-22T19:22:09.229Z,67.64
2019-02-22T19:24:36.415Z,68.55
2019-02-22T19:27:03.559Z,69.67
2019-02-22T19:29:30.738Z,70.57
2019-02-22T19:32:00.455Z,70.60
2019-02-22T19:34:27.610Z,70.89
2019-02-22T19:36:56.784Z,71.00
2019-02-22T19:39:23.933Z,70.63
2019-02-22T19:41:51.070Z,70.48
2019-02-22T19:44:18.256Z,70.63
2019-02-22T19:46:45.403Z,70.19
2019-02-22T19:49:12.554Z,70.26
2019-02-22T19:51:39.714Z,70.73
2019-02-22T19:54:06.837Z,70.81
2019-02-22T19:56:33.989Z,70.41
2019-02-22T19:59:01.234Z,69.95
2019-02-22T20:01:28.411Z,70.05
2019-02-22T20:03:55.687Z,70.00
2019-02-22T20:06:23.120Z,70.08
2019-02-22T20:08:50.286Z,70.38
2019-02-22T20:11:17.445Z,70.64
2019-02-22T20:13:46.193Z,71.13
2019-02-22T20:16:13.441Z,70.82
2019-02-22T20:18:40.795Z,70.74
2019-02-22T20:21:07.918Z,70.19
2019-02-22T20:23:35.877Z,69.93
2019-02-22T20:26:03.003Z,69.07
2019-02-22T20:28:30.250Z,69.00
2019-02-22T20:30:57.526Z,69.43
2019-02-22T20:33:24.654Z,69.43
2019-02-22T20:35:51.829Z,69.22
2019-02-22T20:38:19.095Z,68.62
2019-02-22T20:40:46.351Z,68.00
2019-02-22T20:43:14.951Z,67.58
2019-02-22T20:45:42.273Z,67.85
2019-02-22T20:48:09.419Z,68.25
2019-02-22T20:50:36.578Z,68.06
2019-02-22T20:53:03.802Z,68.45
2019-02-22T20:55:32.451Z,68.01
2019-02-22T20:57:59.585Z,67.92
2019-02-22T21:00:26.773Z,68.15
2019-02-22T21:02:56.438Z,68.66
2019-02-22T21:05:27.055Z,68.48
2019-02-22T21:07:54.234Z,68.03
2019-02-22T21:10:22.175Z,68.60
2019-02-22T21:12:49.291Z,68.47
2019-02-22T21:15:16.573Z,68.65
2019-02-22T21:17:43.695Z,68.75
2019-02-22T21:20:11.391Z,68.35
2019-02-22T21:22:38.685Z,68.15
2019-02-22T21:25:06.715Z,68.04
2019-02-22T21:27:33.832Z,67.92
2019-02-22T21:30:01.027Z,68.20
2019-02-22T21:32:28.174Z,68.16
2019-02-22T21:34:55.284Z,68.14
2019-02-22T21:37:22.634Z,68.02
2019-02-22T21:39:49.800Z,68.41
2019-02-22T21:42:20.088Z,68.28
2019-02-22T21:44:46.617Z,68.10
2019-02-22T21:47:13.724Z,67.98
2019-02-22T21:49:40.852Z,67.87
2019-02-22T21:52:08.008Z,67.75
2019-02-22T21:54:35.129Z,67.85
2019-02-22T21:57:02.253Z,67.91
2019-02-22T21:59:29.426Z,67.94
2019-02-22T22:01:56.562Z,67.94
2019-02-22T22:04:23.792Z,67.96
2019-02-22T22:06:51.120Z,67.85
2019-02-22T22:09:18.270Z,67.94
2019-02-22T22:11:45.430Z,68.01
2019-02-22T22:14:12.682Z,68.02
2019-02-22T22:16:39.791Z,67.95
2019-02-22T22:19:06.907Z,67.99
2019-02-22T22:21:34.271Z,68.21
2019-02-22T22:24:01.403Z,68.21
2019-02-22T22:26:28.602Z,68.12
2019-02-22T22:28:55.782Z,68.20
2019-02-22T22:31:24.494Z,68.20
2019-02-22T22:33:51.608Z,68.36
2019-02-22T22:36:18.747Z,68.39
2019-02-22T22:38:45.876Z,68.41
2019-02-22T22:41:13.393Z,68.53
2019-02-22T22:43:40.551Z,68.41
2019-02-22T22:46:07.673Z,68.23
2019-02-22T22:48:34.905Z,67.94
2019-02-22T22:51:02.097Z,67.94
2019-02-22T22:53:29.271Z,67.97
2019-02-22T22:55:56.442Z,68.10
2019-02-22T22:58:23.624Z,68.08
2019-02-22T23:01:07.472Z,68.00
2019-02-22T23:03:36.104Z,67.66
2019-02-22T23:06:03.699Z,67.50
2019-02-22T23:08:31.144Z,67.48
2019-02-22T23:10:58.599Z,67.34
2019-02-22T23:13:25.715Z,67.29
2019-02-22T23:15:52.825Z,67.48
2019-02-22T23:18:20.009Z,67.58
2019-02-22T23:20:47.133Z,67.79
2019-02-22T23:23:14.260Z,67.79
2019-02-22T23:25:41.428Z,67.97
2019-02-22T23:28:08.547Z,67.96
2019-02-22T23:30:35.784Z,68.06
2019-02-22T23:33:02.976Z,67.95
2019-02-22T23:35:30.209Z,68.01
2019-02-22T23:37:57.332Z,68.06
2019-02-22T23:40:24.467Z,68.12
2019-02-22T23:42:51.594Z,68.23
2019-02-22T23:45:18.709Z,68.16
2019-02-22T23:47:45.850Z,68.15
2019-02-22T23:50:13.186Z,68.40
2019-02-22T23:52:40.402Z,68.69
2019-02-22T23:55:07.590Z,68.73
2019-02-22T23:57:34.730Z,69.07
